Time;durP1;ratioP1;P1;durP2;ratioP2;P2;SDS_P1;SDS_P2;PMS_P1;PMS_P2;Temp;Humidity;BMP_temperature;BMP_pressure;BME280_temperature;BME280_humidity;BME280_pressure;Samples;Min_cycle;Max_cycle;Signal;HPM_P1;HPM_P2
2021/10/23 00:01:24;;;;;;;26.10;18.73;;;8.10;99.90;;;;;;5103003;28;20490;-62
2021/10/23 00:03:57;;;;;;;22.33;18.37;;;8.10;99.90;;;;;;5109659;28;20541;-62
2021/10/23 00:06:27;;;;;;;21.40;17.93;;;8.10;99.90;;;;;;5101195;28;20439;-62
2021/10/23 00:08:54;;;;;;;24.13;16.93;;;8.20;99.90;;;;;;5102054;28;20875;-62
2021/10/23 00:11:23;;;;;;;25.67;18.13;;;8.20;99.90;;;;;;5102782;28;20455;-62
2021/10/23 00:13:50;;;;;;;25.17;18.80;;;8.20;99.90;;;;;;5104192;28;20528;-62
2021/10/23 00:16:17;;;;;;;27.03;18.77;;;8.10;99.90;;;;;;5105081;28;20475;-62
2021/10/23 00:18:44;;;;;;;24.07;18.67;;;8.10;99.90;;;;;;5106923;28;20512;-62
2021/10/23 00:21:14;;;;;;;32.30;21.20;;;8.10;99.90;;;;;;5101893;28;20488;-62
2021/10/23 00:23:41;;;;;;;27.60;20.57;;;8.10;99.90;;;;;;5104178;28;20464;-62
2021/10/23 00:26:08;;;;;;;28.30;20.03;;;8.20;99.90;;;;;;5112357;28;20487;-62
2021/10/23 00:28:37;;;;;;;35.10;23.00;;;8.10;99.90;;;;;;5112254;28;20431;-62
2021/10/23 00:31:07;;;;;;;31.80;20.80;;;8.20;99.90;;;;;;5100549;28;20462;-62
2021/10/23 00:33:34;;;;;;;32.60;20.20;;;8.20;99.90;;;;;;5100756;28;20793;-62
2021/10/23 00:36:01;;;;;;;28.90;20.50;;;8.20;99.90;;;;;;5102466;28;20907;-62
2021/10/23 00:38:28;;;;;;;29.23;20.13;;;8.30;99.90;;;;;;5104551;28;20533;-62
2021/10/23 00:40:58;;;;;;;29.37;20.07;;;8.30;99.90;;;;;;5104810;28;20478;-62
2021/10/23 00:43:25;;;;;;;24.03;17.40;;;8.30;99.90;;;;;;5113594;28;20459;-62
2021/10/23 00:45:55;;;;;;;31.37;18.87;;;8.20;99.90;;;;;;5103574;28;20516;-62
2021/10/23 00:48:23;;;;;;;19.77;17.63;;;8.20;99.90;;;;;;5105291;28;20487;-62
2021/10/23 00:50:53;;;;;;;23.33;16.40;;;8.20;99.90;;;;;;5106624;28;20460;-62
2021/10/23 00:53:22;;;;;;;29.20;16.50;;;8.20;99.90;;;;;;5101542;28;20956;-62
2021/10/23 00:55:52;;;;;;;26.00;17.60;;;8.10;99.90;;;;;;5108188;28;20445;-62
2021/10/23 00:58:19;;;;;;;21.57;17.07;;;8.10;99.90;;;;;;5106360;28;20468;-62
2021/10/23 01:00:46;;;;;;;28.47;17.43;;;8.10;99.90;;;;;;5105866;28;20471;-62
2021/10/23 01:03:15;;;;;;;21.93;16.17;;;8.10;99.90;;;;;;5099897;28;20819;-62
2021/10/23 01:05:42;;;;;;;24.07;17.60;;;8.10;99.90;;;;;;5101773;28;20435;-62
2021/10/23 01:08:14;;;;;;;21.10;16.37;;;8.10;99.90;;;;;;5103101;28;20468;-62
2021/10/23 01:10:41;;;;;;;21.23;16.07;;;8.00;99.90;;;;;;5105094;28;20756;-62
2021/10/23 01:13:08;;;;;;;21.40;14.90;;;8.00;99.90;;;;;;5102136;28;20452;-62
2021/10/23 01:15:35;;;;;;;25.70;16.20;;;7.90;99.90;;;;;;5100311;28;20460;-62
2021/10/23 01:18:04;;;;;;;22.60;16.20;;;7.90;99.90;;;;;;5102300;28;20467;-62
2021/10/23 01:20:36;;;;;;;21.10;17.53;;;8.00;99.90;;;;;;5104016;28;20547;-62
2021/10/23 01:23:03;;;;;;;26.90;18.40;;;8.00;99.90;;;;;;5105208;28;20464;-62
2021/10/23 01:25:32;;;;;;;23.33;19.10;;;8.00;99.90;;;;;;5103436;28;20468;-62
2021/10/23 01:28:01;;;;;;;31.10;19.80;;;8.00;99.90;;;;;;5107426;28;20514;-62
2021/10/23 01:30:32;;;;;;;29.73;17.93;;;8.00;99.90;;;;;;5103022;28;20504;-62
2021/10/23 01:33:00;;;;;;;25.77;17.70;;;8.00;99.90;;;;;;5103008;28;20890;-62
2021/10/23 01:35:28;;;;;;;27.27;19.47;;;8.00;99.90;;;;;;5104978;28;20471;-62
2021/10/23 01:37:57;;;;;;;24.00;18.10;;;8.10;99.90;;;;;;5100222;28;20443;-62
2021/10/23 01:40:26;;;;;;;26.93;19.20;;;8.10;99.90;;;;;;5101571;28;20468;-62
2021/10/23 01:42:54;;;;;;;21.73;19.40;;;8.10;99.90;;;;;;5103147;28;20459;-62
2021/10/23 01:45:21;;;;;;;26.57;19.57;;;8.10;99.90;;;;;;5105460;28;20540;-62
2021/10/23 01:47:48;;;;;;;28.90;21.50;;;8.00;99.90;;;;;;5112591;28;20521;-62
2021/10/23 01:50:19;;;;;;;23.23;20.30;;;8.00;99.90;;;;;;5102436;28;20465;-62
2021/10/23 01:52:54;;;;;;;28.93;18.77;;;8.10;99.90;;;;;;5105853;28;20491;-62
2021/10/23 01:55:25;;;;;;;30.53;20.27;;;8.10;99.90;;;;;;5101387;28;20442;-62
2021/10/23 01:57:52;;;;;;;25.53;19.93;;;8.10;99.90;;;;;;5103844;28;20464;-62
2021/10/23 02:00:20;;;;;;;29.73;19.80;;;8.10;99.90;;;;;;5103978;28;20890;-62
2021/10/23 02:02:47;;;;;;;24.47;20.10;;;8.00;99.90;;;;;;5104447;28;20496;-62
2021/10/23 02:05:17;;;;;;;26.50;21.23;;;8.10;99.90;;;;;;5103211;28;20495;-62
2021/10/23 02:07:44;;;;;;;26.77;21.17;;;8.10;99.90;;;;;;5102641;28;20860;-62
2021/10/23 02:10:11;;;;;;;26.50;20.60;;;8.10;99.90;;;;;;5103603;28;20870;-62
2021/10/23 02:12:43;;;;;;;26.93;19.47;;;8.00;99.90;;;;;;5098751;28;20878;-62
2021/10/23 02:15:11;;;;;;;30.30;20.73;;;8.10;99.90;;;;;;5099360;28;20522;-62
2021/10/23 02:17:38;;;;;;;31.57;19.50;;;8.00;99.90;;;;;;5101208;28;20491;-62
2021/10/23 02:20:07;;;;;;;31.53;21.20;;;8.00;99.90;;;;;;5102798;28;20435;-62
2021/10/23 02:22:34;;;;;;;31.17;21.80;;;8.00;99.90;;;;;;5103892;28;20516;-62
2021/10/23 02:25:04;;;;;;;35.77;21.60;;;8.10;99.90;;;;;;5098035;28;20435;-62
2021/10/23 02:27:31;;;;;;;31.83;19.90;;;8.00;99.90;;;;;;5099891;28;20432;-62
2021/10/23 02:30:00;;;;;;;30.00;19.20;;;8.00;99.90;;;;;;5101043;28;20460;-62
2021/10/23 02:32:27;;;;;;;26.73;21.80;;;8.00;99.90;;;;;;5103102;28;20797;-62
2021/10/23 02:34:54;;;;;;;28.00;19.67;;;8.00;99.90;;;;;;5104067;28;20765;-62
2021/10/23 02:37:24;;;;;;;30.37;21.50;;;8.00;99.90;;;;;;5103272;28;20459;-62
2021/10/23 02:39:51;;;;;;;27.43;18.60;;;7.90;99.90;;;;;;5100254;28;20529;-62
2021/10/23 02:42:18;;;;;;;23.73;18.57;;;7.90;99.90;;;;;;5101935;28;20564;-62
2021/10/23 02:44:46;;;;;;;29.03;20.27;;;7.90;99.90;;;;;;5103481;28;20496;-62
2021/10/23 02:47:15;;;;;;;28.50;20.13;;;7.90;99.90;;;;;;5104347;28;20516;-62
2021/10/23 02:49:42;;;;;;;29.17;18.90;;;7.90;99.90;;;;;;5098510;28;20789;-62
2021/10/23 02:52:09;;;;;;;28.67;19.40;;;7.90;99.90;;;;;;5100943;28;20457;-62
2021/10/23 02:54:36;;;;;;;28.40;20.00;;;7.80;99.90;;;;;;5101966;28;20473;-62
2021/10/23 02:57:03;;;;;;;26.30;18.60;;;7.80;99.90;;;;;;5103556;28;20533;-62
2021/10/23 02:59:30;;;;;;;24.73;18.23;;;7.80;99.90;;;;;;5098904;28;20468;-62
2021/10/23 03:01:57;;;;;;;26.83;18.73;;;7.80;99.90;;;;;;5105662;28;20548;-62
2021/10/23 03:04:26;;;;;;;24.90;18.40;;;7.80;99.90;;;;;;5103896;28;20478;-62
2021/10/23 03:06:53;;;;;;;29.63;17.97;;;7.80;99.90;;;;;;5102020;28;20487;-62
2021/10/23 03:09:20;;;;;;;35.87;19.20;;;7.80;99.90;;;;;;5099635;28;20474;-62
2021/10/23 03:11:46;;;;;;;27.30;17.20;;;7.80;99.90;;;;;;5101110;28;20941;-62
2021/10/23 03:14:13;;;;;;;24.40;19.13;;;7.80;99.90;;;;;;5102961;28;20456;-62
2021/10/23 03:16:41;;;;;;;27.43;19.87;;;7.80;99.90;;;;;;5096882;28;20893;-62
2021/10/23 03:19:08;;;;;;;27.37;18.27;;;7.80;99.90;;;;;;5099221;28;20934;-62
2021/10/23 03:21:39;;;;;;;31.17;18.30;;;7.80;99.90;;;;;;5100689;28;20968;-62
2021/10/23 03:24:06;;;;;;;32.17;20.80;;;7.80;99.90;;;;;;5101698;28;20464;-62
2021/10/23 03:26:33;;;;;;;26.93;18.40;;;7.80;99.90;;;;;;5109878;28;20443;-62
2021/10/23 03:29:01;;;;;;;26.00;19.00;;;7.80;99.90;;;;;;5117032;28;20467;-62
2021/10/23 03:31:28;;;;;;;28.30;20.10;;;7.90;99.90;;;;;;5100182;28;20446;-62
2021/10/23 03:33:57;;;;;;;29.10;20.50;;;7.80;99.90;;;;;;5101592;28;20527;-62
2021/10/23 03:36:24;;;;;;;33.10;20.33;;;7.80;99.90;;;;;;5102620;28;20782;-62
2021/10/23 03:38:53;;;;;;;28.30;20.30;;;7.90;99.90;;;;;;5100486;28;20959;-62
2021/10/23 03:41:20;;;;;;;30.13;20.80;;;7.90;99.90;;;;;;5099020;28;20427;-62
2021/10/23 03:43:47;;;;;;;30.23;19.77;;;7.80;99.90;;;;;;5100572;28;20465;-62
2021/10/23 03:46:14;;;;;;;33.70;22.40;;;7.80;99.90;;;;;;5102274;28;20518;-62
2021/10/23 03:48:41;;;;;;;30.63;24.40;;;7.80;99.90;;;;;;5103690;28;20876;-62
2021/10/23 03:51:08;;;;;;;33.73;23.13;;;7.80;99.90;;;;;;5097668;28;20439;-62
2021/10/23 03:53:35;;;;;;;33.43;21.93;;;7.70;99.90;;;;;;5099526;28;20895;-62
2021/10/23 03:56:05;;;;;;;36.73;22.83;;;7.70;99.90;;;;;;5105533;28;20435;-62
2021/10/23 03:58:32;;;;;;;36.60;22.87;;;7.60;99.90;;;;;;5101876;28;20558;-62
2021/10/23 04:00:59;;;;;;;38.13;22.57;;;7.60;99.90;;;;;;5106647;28;20460;-62
2021/10/23 04:03:26;;;;;;;32.57;22.10;;;7.60;99.90;;;;;;5099487;28;20496;-62
2021/10/23 04:05:53;;;;;;;31.13;22.03;;;7.50;99.90;;;;;;5100080;28;20439;-62
2021/10/23 04:08:20;;;;;;;36.17;23.23;;;7.60;99.90;;;;;;5101841;28;20530;-62
2021/10/23 04:10:47;;;;;;;35.97;25.30;;;7.60;99.90;;;;;;5100713;28;20489;-62
2021/10/23 04:13:16;;;;;;;33.57;23.13;;;7.50;99.90;;;;;;5098351;28;20438;-62
2021/10/23 04:15:43;;;;;;;35.20;25.20;;;7.50;99.90;;;;;;5099799;28;20459;-62
2021/10/23 04:18:10;;;;;;;41.03;25.33;;;7.50;99.90;;;;;;5101529;28;20456;-62
2021/10/23 04:20:37;;;;;;;38.00;24.60;;;7.50;99.90;;;;;;5102549;28;20522;-62
2021/10/23 04:23:04;;;;;;;37.87;24.17;;;7.50;99.90;;;;;;5106001;28;21116;-62
2021/10/23 04:25:31;;;;;;;37.07;26.90;;;7.40;99.90;;;;;;5109933;28;20524;-62
2021/10/23 04:27:58;;;;;;;43.30;27.97;;;7.40;99.90;;;;;;5106889;28;20527;-62
2021/10/23 04:30:27;;;;;;;38.40;25.83;;;7.40;99.90;;;;;;5101643;28;20517;-62
2021/10/23 04:32:55;;;;;;;41.63;26.53;;;7.40;99.90;;;;;;5102762;28;20848;-62
2021/10/23 04:35:22;;;;;;;44.87;26.80;;;7.40;99.90;;;;;;5097624;28;20464;-62
2021/10/23 04:37:49;;;;;;;45.33;26.60;;;7.40;99.90;;;;;;5099859;28;20461;-62
2021/10/23 04:40:16;;;;;;;42.47;26.73;;;7.40;99.90;;;;;;5098848;28;20518;-62
2021/10/23 04:42:43;;;;;;;44.77;26.43;;;7.40;99.90;;;;;;5100853;28;20488;-62
2021/10/23 04:45:11;;;;;;;36.40;24.73;;;7.30;99.90;;;;;;5098909;28;20447;-62
2021/10/23 04:47:39;;;;;;;43.33;25.00;;;7.30;99.90;;;;;;5099994;28;20474;-62
2021/10/23 04:50:06;;;;;;;42.90;24.70;;;7.30;99.90;;;;;;5103738;28;20463;-62
2021/10/23 04:52:37;;;;;;;37.97;24.23;;;7.20;99.90;;;;;;5100267;28;20456;-62
2021/10/23 04:55:04;;;;;;;41.77;26.70;;;7.20;99.90;;;;;;5101157;28;20486;-62
2021/10/23 04:57:33;;;;;;;40.00;26.90;;;7.20;99.90;;;;;;5109951;28;20475;-62
2021/10/23 05:00:02;;;;;;;41.53;25.17;;;7.10;99.90;;;;;;5100132;28;20850;-62
2021/10/23 05:02:29;;;;;;;42.00;26.40;;;7.00;99.90;;;;;;5104650;28;20488;-62
2021/10/23 05:04:57;;;;;;;34.60;23.43;;;7.00;99.90;;;;;;5102736;28;20460;-62
2021/10/23 05:07:24;;;;;;;44.23;27.67;;;7.00;99.90;;;;;;5104425;28;20884;-62
2021/10/23 05:09:51;;;;;;;41.20;24.00;;;6.90;99.90;;;;;;5107162;28;20471;-62
2021/10/23 05:12:18;;;;;;;34.10;25.20;;;7.00;99.90;;;;;;5101949;28;20434;-62
2021/10/23 05:14:48;;;;;;;38.27;26.33;;;7.00;99.90;;;;;;5104408;28;20459;-62
2021/10/23 05:17:15;;;;;;;38.53;25.17;;;7.00;99.90;;;;;;5110187;28;20487;-62
2021/10/23 05:19:45;;;;;;;40.63;25.70;;;6.90;99.90;;;;;;5106304;28;20794;-62
2021/10/23 05:22:13;;;;;;;39.27;25.80;;;6.90;99.90;;;;;;5100906;28;20488;-62
2021/10/23 05:24:40;;;;;;;38.70;24.37;;;6.80;99.90;;;;;;5101896;28;20431;-62
2021/10/23 05:27:07;;;;;;;40.53;25.43;;;6.80;99.90;;;;;;5106607;28;20522;-62
2021/10/23 05:29:34;;;;;;;43.77;26.00;;;6.90;99.90;;;;;;5105293;28;20439;-62
2021/10/23 05:32:01;;;;;;;38.03;25.60;;;6.80;99.90;;;;;;5099961;28;20817;-62
2021/10/23 05:34:28;;;;;;;61.90;40.80;;;6.80;99.90;;;;;;5101450;28;20461;-62
2021/10/23 05:36:55;;;;;;;65.17;43.10;;;6.90;99.90;;;;;;5102182;28;20460;-62
2021/10/23 05:39:26;;;;;;;47.87;33.60;;;6.90;99.90;;;;;;5104360;28;20521;-62
2021/10/23 05:41:55;;;;;;;62.30;42.23;;;7.00;99.90;;;;;;5099656;28;20443;-62
2021/10/23 05:44:23;;;;;;;43.73;29.93;;;7.00;99.90;;;;;;5102315;28;20495;-62
2021/10/23 05:46:50;;;;;;;41.63;29.10;;;7.10;99.90;;;;;;5103801;28;20485;-62
2021/10/23 05:49:17;;;;;;;45.00;28.40;;;7.10;99.90;;;;;;5099742;28;20468;-62
2021/10/23 05:51:44;;;;;;;37.97;26.40;;;7.10;99.90;;;;;;5101637;28;20783;-62
2021/10/23 05:54:11;;;;;;;53.97;27.33;;;7.00;99.90;;;;;;5103288;28;20465;-62
2021/10/23 05:56:42;;;;;;;43.83;25.83;;;7.00;99.90;;;;;;5105632;28;20882;-62
2021/10/23 05:59:14;;;;;;;39.67;25.93;;;6.90;99.90;;;;;;5103345;28;20765;-62
2021/10/23 06:01:43;;;;;;;39.33;24.97;;;7.00;99.90;;;;;;5103139;28;20518;-62
2021/10/23 06:04:11;;;;;;;35.83;25.10;;;7.00;99.90;;;;;;5109386;28;20452;-62
2021/10/23 06:06:39;;;;;;;44.83;26.60;;;7.00;99.90;;;;;;5099497;28;20972;-62
2021/10/23 06:09:06;;;;;;;36.43;25.63;;;7.00;99.90;;;;;;5102730;28;20439;-62
2021/10/23 06:11:36;;;;;;;39.20;26.80;;;6.90;99.90;;;;;;5103138;28;20426;-62
2021/10/23 06:14:06;;;;;;;37.10;23.70;;;6.80;99.90;;;;;;5100392;28;20510;-62
2021/10/23 06:16:33;;;;;;;38.23;23.60;;;6.80;99.90;;;;;;5099803;28;20921;-62
2021/10/23 06:19:00;;;;;;;33.40;23.87;;;6.70;99.90;;;;;;5102043;28;20435;-62
2021/10/23 06:21:27;;;;;;;34.33;23.90;;;6.60;99.90;;;;;;5110662;28;20431;-62
2021/10/23 06:23:54;;;;;;;34.67;24.93;;;6.50;99.90;;;;;;5114046;28;20777;-62
2021/10/23 06:26:21;;;;;;;36.17;22.20;;;6.40;99.90;;;;;;5114631;28;20552;-62
2021/10/23 06:28:49;;;;;;;34.97;23.37;;;6.40;99.90;;;;;;5108076;28;20511;-62
2021/10/23 06:31:17;;;;;;;39.73;23.93;;;6.40;99.90;;;;;;5104902;28;20469;-62
2021/10/23 06:33:44;;;;;;;37.37;23.20;;;6.40;99.90;;;;;;5105169;28;20446;-62
2021/10/23 06:36:11;;;;;;;33.97;23.77;;;6.40;99.90;;;;;;5107830;28;20857;-62
2021/10/23 06:38:38;;;;;;;39.87;26.13;;;6.50;99.90;;;;;;5116330;28;20485;-63
2021/10/23 06:41:05;;;;;;;36.57;24.20;;;6.50;99.90;;;;;;5111151;28;20865;-62
2021/10/23 06:43:32;;;;;;;32.77;25.03;;;6.60;99.90;;;;;;5109630;28;20842;-62
2021/10/23 06:45:59;;;;;;;38.03;23.77;;;6.70;99.90;;;;;;5100456;28;20786;-63
2021/10/23 06:48:28;;;;;;;38.60;24.10;;;6.80;99.90;;;;;;5100734;28;20463;-62
2021/10/23 06:50:55;;;;;;;35.57;23.40;;;6.90;99.90;;;;;;5103970;28;20590;-62
2021/10/23 06:53:22;;;;;;;37.57;22.53;;;6.90;99.90;;;;;;5107271;28;20460;-62
2021/10/23 06:55:49;;;;;;;36.23;24.80;;;7.00;99.90;;;;;;5113938;28;20975;-63
2021/10/23 06:58:19;;;;;;;41.40;27.67;;;7.20;99.90;;;;;;5104258;28;20471;-63
2021/10/23 07:00:46;;;;;;;37.40;23.30;;;7.30;99.90;;;;;;5103887;28;20439;-62
2021/10/23 07:03:18;;;;;;;30.30;23.50;;;7.30;99.90;;;;;;5103011;28;20515;-62
2021/10/23 07:05:47;;;;;;;34.07;23.50;;;7.40;99.90;;;;;;5106794;28;20465;-63
2021/10/23 07:08:14;;;;;;;34.80;25.00;;;7.60;99.90;;;;;;5098931;28;20439;-62
2021/10/23 07:10:42;;;;;;;33.13;24.07;;;7.80;99.90;;;;;;5108554;28;20513;-62
2021/10/23 07:13:11;;;;;;;38.90;23.17;;;7.90;99.90;;;;;;5105363;28;20472;-62
2021/10/23 07:15:39;;;;;;;36.17;24.10;;;8.00;99.90;;;;;;5099942;28;20496;-63
2021/10/23 07:18:06;;;;;;;42.93;24.20;;;8.00;99.90;;;;;;5099274;28;20442;-63
2021/10/23 07:20:33;;;;;;;32.90;22.90;;;8.20;99.90;;;;;;5106172;28;20488;-63
2021/10/23 07:23:02;;;;;;;59.00;37.53;;;8.40;99.90;;;;;;5101354;28;20467;-63
2021/10/23 07:25:29;;;;;;;34.27;23.53;;;8.30;99.90;;;;;;5104823;28;20504;-63
2021/10/23 07:27:56;;;;;;;33.73;22.00;;;8.30;99.90;;;;;;5112896;28;20452;-63
2021/10/23 07:30:23;;;;;;;31.00;22.30;;;8.20;99.90;;;;;;5101353;28;20861;-62
2021/10/23 07:32:50;;;;;;;32.80;21.67;;;8.20;99.90;;;;;;5108183;28;20481;-63
2021/10/23 07:35:17;;;;;;;32.23;21.77;;;8.10;99.90;;;;;;5106303;28;20464;-63
2021/10/23 07:37:44;;;;;;;34.67;21.73;;;8.00;99.90;;;;;;5106940;28;20883;-63
2021/10/23 07:40:17;;;;;;;36.03;22.20;;;8.20;99.90;;;;;;5102243;28;20510;-63
2021/10/23 07:42:46;;;;;;;34.67;23.70;;;8.40;99.90;;;;;;5099505;28;20495;-63
2021/10/23 07:45:16;;;;;;;32.70;22.40;;;8.70;99.90;;;;;;5102390;28;20520;-63
2021/10/23 07:47:46;;;;;;;31.77;21.67;;;8.90;99.90;;;;;;5097559;28;20439;-63
2021/10/23 07:50:16;;;;;;;35.53;23.07;;;9.00;99.90;;;;;;5098289;28;20485;-63
2021/10/23 07:52:46;;;;;;;25.17;20.07;;;9.10;99.90;;;;;;5099174;28;20862;-62
2021/10/23 07:55:15;;;;;;;29.20;19.13;;;9.00;99.90;;;;;;5101713;28;20497;-62
2021/10/23 07:57:42;;;;;;;29.23;19.50;;;9.10;99.90;;;;;;5107702;28;20464;-62
2021/10/23 08:00:11;;;;;;;33.73;21.37;;;9.10;99.90;;;;;;5108486;28;20516;-62
2021/10/23 08:02:58;;;;;;;28.37;21.00;;;9.20;99.90;;;;;;5098747;28;20526;-62
2021/10/23 08:05:32;;;;;;;32.33;20.03;;;9.30;99.90;;;;;;5103383;28;20468;-62
2021/10/23 08:07:59;;;;;;;29.83;19.30;;;9.40;99.90;;;;;;5100359;28;20536;-62
2021/10/23 08:10:30;;;;;;;26.97;19.60;;;9.50;99.90;;;;;;5098479;28;20448;-61
2021/10/23 08:13:02;;;;;;;32.03;20.50;;;9.80;99.90;;;;;;5097119;28;20453;-62
2021/10/23 08:15:31;;;;;;;29.00;20.30;;;10.00;99.90;;;;;;5098082;28;20583;-62
2021/10/23 08:17:59;;;;;;;28.60;19.07;;;10.30;99.90;;;;;;5106500;28;20882;-62
2021/10/23 08:20:26;;;;;;;29.33;19.97;;;10.50;99.90;;;;;;5106224;28;20463;-62
2021/10/23 08:22:54;;;;;;;24.20;18.50;;;10.50;99.90;;;;;;5097312;28;20491;-62
2021/10/23 08:25:22;;;;;;;22.90;19.27;;;10.80;99.90;;;;;;5106837;28;20533;-62
2021/10/23 08:27:50;;;;;;;26.47;19.30;;;11.00;99.90;;;;;;5106279;28;20524;-62
2021/10/23 08:30:21;;;;;;;30.77;19.67;;;11.00;99.90;;;;;;5110911;28;20562;-63
2021/10/23 08:32:49;;;;;;;24.63;19.43;;;11.00;99.90;;;;;;5101041;28;20447;-63
2021/10/23 08:35:17;;;;;;;23.60;18.00;;;11.20;1.00;;;;;;5103207;28;20464;-63
2021/10/23 08:37:46;;;;;;;26.93;19.60;;;11.30;50.10;;;;;;5105175;28;20524;-63
2021/10/23 08:40:16;;;;;;;25.67;19.50;;;11.40;99.90;;;;;;5100598;28;20460;-63
2021/10/23 08:42:46;;;;;;;20.80;16.23;;;11.70;99.90;;;;;;5102068;28;20431;-63
2021/10/23 08:45:19;;;;;;;23.03;17.33;;;11.80;49.80;;;;;;5100911;28;20460;-62
2021/10/23 08:47:48;;;;;;;25.97;18.20;;;11.60;26.40;;;;;;5105585;28;20968;-62
2021/10/23 08:50:17;;;;;;;23.60;17.20;;;11.90;15.30;;;;;;5100075;28;20517;-62
2021/10/23 08:52:49;;;;;;;26.93;17.03;;;12.10;28.30;;;;;;5101500;28;20467;-62
2021/10/23 08:55:18;;;;;;;20.37;16.47;;;12.20;1.00;;;;;;5103450;28;20460;-62
2021/10/23 08:57:48;;;;;;;24.37;16.77;;;12.40;1.00;;;;;;5104646;28;20820;-61
2021/10/23 09:00:20;;;;;;;21.93;16.20;;;12.30;1.00;;;;;;5104649;28;20441;-61
2021/10/23 09:02:48;;;;;;;25.70;16.77;;;12.20;1.00;;;;;;5106673;28;20530;-61
2021/10/23 09:05:16;;;;;;;21.10;15.37;;;11.90;1.00;;;;;;5103656;28;20457;-61
2021/10/23 09:07:45;;;;;;;22.83;15.43;;;12.10;1.00;;;;;;5104541;28;20460;-60
2021/10/23 09:10:12;;;;;;;21.13;15.00;;;12.20;1.00;;;;;;5099950;28;20898;-60
2021/10/23 09:12:40;;;;;;;22.30;15.20;;;12.20;1.00;;;;;;5103679;28;20787;-60
2021/10/23 09:15:11;;;;;;;26.37;18.20;;;12.50;1.00;;;;;;5109059;28;20452;-60
2021/10/23 09:17:48;;;;;;;19.40;15.37;;;12.70;1.00;;;;;;5111524;28;20496;-60
2021/10/23 09:20:21;;;;;;;21.80;14.90;;;12.70;1.00;;;;;;5105547;28;20870;-60
2021/10/23 09:22:49;;;;;;;18.93;14.77;;;12.90;1.00;;;;;;5101414;28;20461;-60
2021/10/23 09:25:22;;;;;;;22.93;15.20;;;13.10;1.00;;;;;;5099510;28;20472;-60
2021/10/23 09:27:59;;;;;;;18.07;14.97;;;13.40;1.00;;;;;;5104500;28;20460;-60
2021/10/23 09:30:31;;;;;;;17.30;13.83;;;13.70;1.00;;;;;;5107924;28;20459;-60
2021/10/23 09:33:03;;;;;;;18.73;13.80;;;13.60;1.00;;;;;;5100526;28;20796;-60
2021/10/23 09:35:31;;;;;;;20.10;14.03;;;14.00;1.00;;;;;;5102487;28;20520;-60
2021/10/23 09:38:02;;;;;;;24.97;13.43;;;14.20;1.00;;;;;;5105924;28;20464;-60
2021/10/23 09:40:31;;;;;;;19.70;12.20;;;14.50;1.00;;;;;;5105460;28;20917;-60
2021/10/23 09:43:15;;;;;;;16.93;13.70;;;14.60;1.00;;;;;;5104941;28;20517;-60
2021/10/23 09:46:10;;;;;;;14.43;12.50;;;14.60;1.00;;;;;;5099272;28;20465;-60
2021/10/23 09:48:42;;;;;;;17.80;13.30;;;14.70;1.00;;;;;;5114310;28;20478;-60
2021/10/23 09:51:12;;;;;;;18.80;14.90;;;14.30;1.00;;;;;;5118913;28;20900;-60
2021/10/23 09:53:39;;;;;;;18.83;14.13;;;13.70;1.00;;;;;;5114722;28;20460;-58
2021/10/23 09:56:08;;;;;;;18.33;11.03;;;14.00;1.00;;;;;;5107557;28;20442;-58
2021/10/23 09:58:38;;;;;;;14.53;10.40;;;13.90;1.00;;;;;;5099691;28;20476;-59
2021/10/23 10:01:10;;;;;;;16.57;9.80;;;14.40;1.00;;;;;;5109613;28;20566;-59
2021/10/23 10:03:39;;;;;;;11.90;10.50;;;14.40;1.00;;;;;;5106340;28;20969;-59
2021/10/23 10:06:06;;;;;;;16.33;9.70;;;15.20;1.00;;;;;;5110174;28;20479;-57
2021/10/23 10:08:34;;;;;;;19.73;10.50;;;15.90;1.00;;;;;;5105261;28;20963;-59
2021/10/23 10:11:02;;;;;;;12.50;9.20;;;15.70;1.00;;;;;;5103813;28;20468;-56
2021/10/23 10:13:30;;;;;;;11.57;9.43;;;16.00;1.00;;;;;;5104898;28;20496;-58
2021/10/23 10:15:59;;;;;;;12.03;8.13;;;16.10;1.00;;;;;;5113764;28;20522;-58
2021/10/23 10:18:26;;;;;;;11.93;8.53;;;16.10;1.00;;;;;;5103188;28;20476;-58
2021/10/23 10:20:58;;;;;;;11.10;7.30;;;15.80;1.00;;;;;;5100542;28;20480;-56
2021/10/23 10:23:34;;;;;;;11.03;7.30;;;15.50;1.00;;;;;;5103379;28;20921;-55
2021/10/23 10:26:29;;;;;;;10.70;6.90;;;15.30;1.00;;;;;;5104147;28;20917;-58
2021/10/23 10:29:26;;;;;;;8.77;6.73;;;15.10;1.00;;;;;;5094899;28;20537;-59
2021/10/23 10:32:01;;;;;;;11.00;6.00;;;14.40;1.00;;;;;;5101966;28;20464;-59
2021/10/23 10:35:27;;;;;;;10.97;6.57;;;14.00;1.00;;;;;;5104247;28;20751;-59
2021/10/23 10:38:08;;;;;;;9.03;4.30;;;13.60;1.00;;;;;;5104311;28;20460;-59
2021/10/23 10:43:36;;;;;;;7.10;4.67;;;12.90;1.00;;;;;;5103279;28;20761;-57
2021/10/23 10:46:06;;;;;;;7.33;5.20;;;13.20;1.00;;;;;;5098085;28;20876;-54
2021/10/23 10:48:40;;;;;;;6.83;4.70;;;13.30;1.00;;;;;;5104043;28;20492;-58
2021/10/23 10:51:23;;;;;;;8.13;4.60;;;13.40;1.00;;;;;;5101412;28;20891;-57
2021/10/23 10:54:12;;;;;;;11.07;5.40;;;13.50;1.00;;;;;;5082758;28;20530;-55
2021/10/23 10:56:44;;;;;;;12.83;4.93;;;13.80;1.00;;;;;;5108785;28;20475;-58
2021/10/23 10:59:11;;;;;;;7.50;5.20;;;13.60;1.00;;;;;;5099974;28;20835;-58
2021/10/23 11:01:40;;;;;;;12.40;6.43;;;13.80;1.00;;;;;;5107520;28;20464;-58
2021/10/23 11:04:17;;;;;;;12.40;5.67;;;13.70;1.00;;;;;;5104291;28;20498;-55
2021/10/23 11:06:53;;;;;;;8.53;5.33;;;13.70;1.00;;;;;;5098046;28;20464;-55
2021/10/23 11:09:45;;;;;;;8.60;5.30;;;13.50;1.00;;;;;;5099231;28;20460;-58
2021/10/23 11:12:28;;;;;;;12.27;5.50;;;13.20;1.00;;;;;;5100835;28;20468;-54
2021/10/23 11:14:55;;;;;;;9.97;5.30;;;13.20;1.00;;;;;;5102431;28;20870;-57
2021/10/23 11:17:22;;;;;;;11.37;5.80;;;13.30;1.00;;;;;;5103723;28;20488;-58
2021/10/23 11:19:54;;;;;;;5.27;4.50;;;13.50;1.00;;;;;;5100030;28;20512;-58
2021/10/23 11:22:26;;;;;;;7.30;4.57;;;14.00;1.00;;;;;;5115486;28;20891;-59
2021/10/23 11:24:58;;;;;;;8.93;5.13;;;14.00;1.00;;;;;;5102602;28;20523;-58
2021/10/23 11:27:50;;;;;;;9.70;4.33;;;13.40;1.00;;;;;;5105927;28;20898;-57
2021/10/23 11:30:25;;;;;;;5.17;4.53;;;13.60;1.00;;;;;;5094444;28;20453;-57
2021/10/23 11:32:56;;;;;;;7.23;4.13;;;13.50;1.00;;;;;;5106624;28;20545;-57
2021/10/23 11:35:37;;;;;;;7.23;4.10;;;13.60;1.00;;;;;;5104688;28;20460;-58
2021/10/23 11:38:06;;;;;;;8.30;4.33;;;13.50;1.00;;;;;;5098951;28;20870;-59
2021/10/23 11:40:36;;;;;;;11.30;4.60;;;13.60;1.00;;;;;;5101985;28;20552;-55
2021/10/23 11:43:04;;;;;;;14.43;4.23;;;13.50;1.00;;;;;;5101705;28;20510;-56
2021/10/23 11:45:32;;;;;;;6.50;3.83;;;13.60;1.00;;;;;;5102272;28;20904;-57
2021/10/23 11:48:01;;;;;;;8.80;4.40;;;13.30;99.90;;;;;;5098013;28;20456;-55
2021/10/23 11:50:30;;;;;;;8.10;3.80;;;13.10;99.90;;;;;;5102783;28;20764;-56
2021/10/23 11:53:02;;;;;;;4.70;3.50;;;13.30;1.00;;;;;;5100646;28;20539;-59
2021/10/23 11:55:34;;;;;;;9.73;3.37;;;13.50;1.00;;;;;;5106062;28;20464;-58
2021/10/23 11:58:09;;;;;;;7.47;3.63;;;13.90;1.00;;;;;;5109935;28;20540;-57
2021/10/23 12:00:38;;;;;;;7.93;3.73;;;14.00;99.90;;;;;;5114066;28;20541;-59
2021/10/23 12:03:12;;;;;;;7.70;4.43;;;14.00;99.90;;;;;;5104584;28;20460;-59
2021/10/23 12:05:46;;;;;;;8.93;4.73;;;14.10;99.90;;;;;;5106040;28;20495;-59
2021/10/23 12:08:31;;;;;;;9.40;4.70;;;14.20;99.90;;;;;;5106413;28;20467;-59
2021/10/23 12:11:18;;;;;;;7.63;6.00;;;14.00;99.90;;;;;;5103403;28;20570;-56
2021/10/23 12:14:01;;;;;;;8.30;5.00;;;13.80;99.90;;;;;;5103563;28;20476;-58
2021/10/23 12:16:40;;;;;;;6.90;5.00;;;13.60;99.90;;;;;;5110574;28;20502;-58
2021/10/23 12:19:11;;;;;;;8.03;5.57;;;13.40;99.90;;;;;;5106474;28;20527;-58
2021/10/23 12:21:42;;;;;;;10.93;5.47;;;13.20;99.90;;;;;;5107737;28;20769;-58
2021/10/23 12:24:30;;;;;;;7.40;4.67;;;13.50;99.90;;;;;;5104970;28;20852;-58
2021/10/23 12:27:21;;;;;;;9.27;4.50;;;14.00;99.90;;;;;;5105021;28;20823;-58
2021/10/23 12:29:52;;;;;;;7.43;3.93;;;14.70;99.90;;;;;;5099346;28;20507;-59
2021/10/23 12:32:20;;;;;;;6.10;4.10;;;15.40;99.90;;;;;;5112610;28;20463;-54
2021/10/23 12:35:01;;;;;;;9.63;3.50;;;15.70;99.90;;;;;;5109335;28;20894;-55
2021/10/23 12:37:54;;;;;;;4.60;3.30;;;15.90;99.90;;;;;;5113457;28;20467;-56
2021/10/23 12:40:35;;;;;;;5.73;3.07;;;16.10;99.90;;;;;;5107774;28;20938;-58
2021/10/23 12:43:07;;;;;;;3.90;2.80;;;16.20;99.90;;;;;;5112024;28;20474;-56
2021/10/23 12:45:40;;;;;;;5.37;3.23;;;16.40;99.90;;;;;;5112759;28;20577;-58
2021/10/23 12:48:09;;;;;;;5.13;2.60;;;16.30;99.90;;;;;;5110338;28;20466;-58
2021/10/23 12:50:41;;;;;;;6.10;3.23;;;16.30;99.90;;;;;;5115322;28;20807;-58
2021/10/23 12:53:08;;;;;;;8.80;3.20;;;16.00;99.90;;;;;;5108391;28;20467;-54
2021/10/23 12:55:39;;;;;;;6.70;2.73;;;15.70;99.90;;;;;;5101310;28;20518;-58